LFGJ/DLE METAR and TAF weather

Enter ICAO airport designator
Station Type Date Time Source
LFGJ METAR 2020/07/06 22:30 UTC NOAA

LFGJ 062230Z AUTO 06004KT CAVOK 13/07 Q1022


Station Type Date Time Source
LFGJ Decoded METAR 2020/07/06 22:30 UTC NOAA

Dole Tavaux, France (LFGJ) 47-02-34N 005-26-06E
Jul 06, 2020 - 06:30 PM EDT / 2020.07.06 2230 UTC
Wind: from the ENE (060 degrees) at 5 MPH (4 KT):0
Visibility: greater than 7 mile(s):0
Temperature: 55 F (13 C)
Dew Point: 44 F (7 C)
Relative Humidity: 66%
Pressure (altimeter): 30.18 in. Hg (1022 hPa)
ob: LFGJ 062230Z AUTO 06004KT CAVOK 13/07 Q1022
cycle: 22

Station Type Date Time Source
LFGJ TAF 2020/06/22 09:21 UTC NOAA

TAF LFGJ 220800Z 2209/2221 01008KT 9999 FEW035 BKN053
BECMG 2212/2215 CAVOK

Example: see airport list